地図

経路データ

SID SEASON NUMBER BASIN SUBBASIN NAME ISO_TIME NATURE LAT LON WMO_WIND WMO_PRES WMO_AGENCY TRACK_TYPE DIST2LAND LANDFALL IFLAG USA_AGENCY USA_ATCF_ID USA_LAT USA_LON USA_RECORD USA_STATUS USA_WIND USA_PRES USA_SSHS USA_R34_NE USA_R34_SE USA_R34_SW USA_R34_NW USA_R50_NE USA_R50_SE USA_R50_SW USA_R50_NW USA_R64_NE USA_R64_SE USA_R64_SW USA_R64_NW USA_POCI USA_ROCI USA_RMW USA_EYE TOKYO_LAT TOKYO_LON TOKYO_GRADE TOKYO_WIND TOKYO_PRES TOKYO_R50_DIR TOKYO_R50_LONG TOKYO_R50_SHORT TOKYO_R30_DIR TOKYO_R30_LONG TOKYO_R30_SHORT TOKYO_LAND CMA_LAT CMA_LON CMA_CAT CMA_WIND CMA_PRES HKO_LAT HKO_LON HKO_CAT HKO_WIND HKO_PRES NEWDELHI_LAT NEWDELHI_LON NEWDELHI_GRADE NEWDELHI_WIND NEWDELHI_PRES NEWDELHI_CI NEWDELHI_DP NEWDELHI_POCI REUNION_LAT REUNION_LON REUNION_TYPE REUNION_WIND REUNION_PRES REUNION_TNUM REUNION_CI REUNION_RMW REUNION_R34_NE REUNION_R34_SE REUNION_R34_SW REUNION_R34_NW REUNION_R50_NE REUNION_R50_SE REUNION_R50_SW REUNION_R50_NW REUNION_R64_NE REUNION_R64_SE REUNION_R64_SW REUNION_R64_NW BOM_LAT BOM_LON BOM_TYPE BOM_WIND BOM_PRES BOM_TNUM BOM_CI BOM_RMW BOM_R34_NE BOM_R34_SE BOM_R34_SW BOM_R34_NW BOM_R50_NE BOM_R50_SE BOM_R50_SW BOM_R50_NW BOM_R64_NE BOM_R64_SE BOM_R64_SW BOM_R64_NW BOM_ROCI BOM_POCI BOM_EYE BOM_POS_METHOD BOM_PRES_METHOD NADI_LAT NADI_LON NADI_CAT NADI_WIND NADI_PRES WELLINGTON_LAT WELLINGTON_LON WELLINGTON_WIND WELLINGTON_PRES DS824_LAT DS824_LON DS824_STAGE DS824_WIND DS824_PRES TD9636_LAT TD9636_LON TD9636_STAGE TD9636_WIND TD9636_PRES TD9635_LAT TD9635_LON TD9635_WIND TD9635_PRES TD9635_ROCI NEUMANN_LAT NEUMANN_LON NEUMANN_CLASS NEUMANN_WIND NEUMANN_PRES MLC_LAT MLC_LON MLC_CLASS MLC_WIND MLC_PRES USA_GUST BOM_GUST BOM_GUST_PER REUNION_GUST REUNION_GUST_PER USA_SEAHGT USA_SEARAD_NE USA_SEARAD_SE USA_SEARAD_SW USA_SEARAD_NW STORM_SPEED STORM_DIR
1904252N16306 1904 33 NA NA NOT_NAMED 1904-09-08 00:00:00 TS 16.2000 -54.0000 50 hurdat_atl main 975 957 O_____________ hurdat_atl AL021904 16.2000 -54.0000 TS 50 0 9 303
1904252N16306 1904 33 NA NA NOT_NAMED 1904-09-08 03:00:00 TS 16.4453 -54.4022 main 957 948 P_____________ AL021904 16.4453 -54.4022 TS 50 0 9 303
1904252N16306 1904 33 NA NA NOT_NAMED 1904-09-08 06:00:00 TS 16.7000 -54.8000 50 hurdat_atl main 948 934 O_____________ hurdat_atl AL021904 16.7000 -54.8000 TS 50 0 9 305
1904252N16306 1904 33 NA NA NOT_NAMED 1904-09-08 09:00:00 TS 16.9772 -55.2054 main 943 930 P_____________ AL021904 16.9772 -55.2054 TS 50 0 11 305
1904252N16306 1904 33 NA NA NOT_NAMED 1904-09-08 12:00:00 TS 17.3000 -55.7000 50 hurdat_atl main 934 923 O_____________ hurdat_atl AL021904 17.3000 -55.7000 TS 50 0 13 303
1904252N16306 1904 33 NA NA NOT_NAMED 1904-09-08 15:00:00 TS 17.6775 -56.3551 main 927 898 P_____________ AL021904 17.6775 -56.3551 TS 50 0 16 301
1904252N16306 1904 33 NA NA NOT_NAMED 1904-09-08 18:00:00 TS 18.1000 -57.1000 50 hurdat_atl main 898 822 O_____________ hurdat_atl AL021904 18.1000 -57.1000 TS 50 0 16 302
1904252N16306 1904 33 NA NA NOT_NAMED 1904-09-08 21:00:00 TS 18.5421 -57.8279 main 822 740 P_____________ AL021904 18.5421 -57.8279 TS 50 0 17 302
1904252N16306 1904 33 NA NA NOT_NAMED 1904-09-09 00:00:00 TS 19.0000 -58.6000 50 hurdat_atl main 740 661 O_____________ hurdat_atl AL021904 19.0000 -58.6000 TS 50 0 18 300
1904252N16306 1904 33 NA NA NOT_NAMED 1904-09-09 03:00:00 TS 19.4348 -59.4356 main 661 581 P_____________ AL021904 19.4348 -59.4356 TS 50 0 18 299
1904252N16306 1904 33 NA NA NOT_NAMED 1904-09-09 06:00:00 TS 19.9000 -60.3000 50 hurdat_atl main 581 512 O_____________ hurdat_atl AL021904 19.9000 -60.3000 TS 50 0 20 302
1904252N16306 1904 33 NA NA NOT_NAMED 1904-09-09 09:00:00 TS 20.4652 -61.2019 main 517 475 P_____________ AL021904 20.4652 -61.2019 TS 50 0 19 305
1904252N16306 1904 33 NA NA NOT_NAMED 1904-09-09 12:00:00 TS 21.0000 -62.0000 50 hurdat_atl main 475 458 O_____________ hurdat_atl AL021904 21.0000 -62.0000 TS 50 0 15 306
1904252N16306 1904 33 NA NA NOT_NAMED 1904-09-09 15:00:00 TS 21.3716 -62.5387 main 466 453 P_____________ AL021904 21.3716 -62.5387 TS 50 0 12 307
1904252N16306 1904 33 NA NA NOT_NAMED 1904-09-09 18:00:00 TS 21.7000 -63.0000 50 hurdat_atl main 458 452 O_____________ hurdat_atl AL021904 21.7000 -63.0000 TS 50 0 12 306
1904252N16306 1904 33 NA NA NOT_NAMED 1904-09-09 21:00:00 TS 22.0849 -63.5778 main 463 463 P_____________ AL021904 22.0849 -63.5778 TS 50 0 14 306
1904252N16306 1904 33 NA NA NOT_NAMED 1904-09-10 00:00:00 TS 22.5000 -64.2000 50 hurdat_atl main 481 481 O_____________ hurdat_atl AL021904 22.5000 -64.2000 TS 50 0 15 307
1904252N16306 1904 33 NA NA NOT_NAMED 1904-09-10 03:00:00 TS 22.9651 -64.8647 main 519 518 P_____________ AL021904 22.9651 -64.8647 TS 50 0 15 307
1904252N16306 1904 33 NA NA NOT_NAMED 1904-09-10 06:00:00 TS 23.4000 -65.5000 50 hurdat_atl main 559 559 O_____________ hurdat_atl AL021904 23.4000 -65.5000 TS 50 0 13 305
1904252N16306 1904 33 NA NA NOT_NAMED 1904-09-10 09:00:00 TS 23.7147 -66.0381 main 592 591 P_____________ AL021904 23.7147 -66.0381 TS 50 0 11 303
1904252N16306 1904 33 NA NA NOT_NAMED 1904-09-10 12:00:00 TS 24.0000 -66.5000 50 hurdat_atl main 599 599 O_____________ hurdat_atl AL021904 24.0000 -66.5000 TS 50 0 10 309
1904252N16306 1904 33 NA NA NOT_NAMED 1904-09-10 15:00:00 TS 24.3648 -66.9225 main 621 617 P_____________ AL021904 24.3648 -66.9225 TS 50 0 10 314
1904252N16306 1904 33 NA NA NOT_NAMED 1904-09-10 18:00:00 TS 24.7000 -67.3000 50 hurdat_atl main 634 629 O_____________ hurdat_atl AL021904 24.7000 -67.3000 TS 50 0 9 311
1904252N16306 1904 33 NA NA NOT_NAMED 1904-09-10 21:00:00 TS 24.9222 -67.6355 main 641 637 P_____________ AL021904 24.9222 -67.6355 TS 50 0 8 302
1904252N16306 1904 33 NA NA NOT_NAMED 1904-09-11 00:00:00 TS 25.1000 -68.0000 50 hurdat_atl main 648 645 O_____________ hurdat_atl AL021904 25.1000 -68.0000 TS 50 0 9 296
1904252N16306 1904 33 NA NA NOT_NAMED 1904-09-11 03:00:00 TS 25.3000 -68.4776 main 648 628 P_____________ AL021904 25.3000 -68.4776 TS 50 0 10 294
1904252N16306 1904 33 NA NA NOT_NAMED 1904-09-11 06:00:00 TS 25.5000 -69.0000 50 hurdat_atl main 630 616 O_____________ hurdat_atl AL021904 25.5000 -69.0000 TS 50 0 10 294
1904252N16306 1904 33 NA NA NOT_NAMED 1904-09-11 09:00:00 TS 25.7075 -69.5150 main 616 607 P_____________ AL021904 25.7075 -69.5150 TS 50 0 10 294
1904252N16306 1904 33 NA NA NOT_NAMED 1904-09-11 12:00:00 TS 25.9000 -70.0000 50 hurdat_atl main 607 598 O_____________ hurdat_atl AL021904 25.9000 -70.0000 TS 50 0 9 293
1904252N16306 1904 33 NA NA NOT_NAMED 1904-09-11 15:00:00 TS 26.0498 -70.4153 main 598 595 P_____________ AL021904 26.0498 -70.4153 TS 50 0 8 293
1904252N16306 1904 33 NA NA NOT_NAMED 1904-09-11 18:00:00 TS 26.2000 -70.8000 50 hurdat_atl main 601 598 O_____________ hurdat_atl AL021904 26.2000 -70.8000 TS 50 0 8 297
1904252N16306 1904 33 NA NA NOT_NAMED 1904-09-11 21:00:00 TS 26.4074 -71.2074 main 609 606 P_____________ AL021904 26.4074 -71.2074 TS 52 0 8 299
1904252N16306 1904 33 NA NA NOT_NAMED 1904-09-12 00:00:00 TS 26.6000 -71.6000 55 hurdat_atl main 620 617 O_____________ hurdat_atl AL021904 26.6000 -71.6000 TS 55 0 7 295
1904252N16306 1904 33 NA NA NOT_NAMED 1904-09-12 03:00:00 TS 26.7149 -71.9577 main 621 598 P_____________ AL021904 26.7149 -71.9577 TS 57 0 7 288
1904252N16306 1904 33 NA NA NOT_NAMED 1904-09-12 06:00:00 TS 26.8000 -72.3000 60 hurdat_atl main 598 574 O_____________ hurdat_atl AL021904 26.8000 -72.3000 TS 60 0 6 287
1904252N16306 1904 33 NA NA NOT_NAMED 1904-09-12 09:00:00 TS 26.8999 -72.6426 main 574 542 P_____________ AL021904 26.8999 -72.6426 TS 62 0 7 288
1904252N16306 1904 33 NA NA NOT_NAMED 1904-09-12 12:00:00 TS 27.0000 -73.0000 65 hurdat_atl main 542 510 O_____________ hurdat_atl AL021904 27.0000 -73.0000 HU 65 1 7 286
1904252N16306 1904 33 NA NA NOT_NAMED 1904-09-12 15:00:00 TS 27.0849 -73.3853 main 510 480 P_____________ AL021904 27.0849 -73.3853 HU 67 1 7 286
1904252N16306 1904 33 NA NA NOT_NAMED 1904-09-12 18:00:00 TS 27.2000 -73.8000 70 hurdat_atl main 480 451 O_____________ hurdat_atl AL021904 27.2000 -73.8000 HU 70 1 8 291
1904252N16306 1904 33 NA NA NOT_NAMED 1904-09-12 21:00:00 TS 27.3774 -74.2351 main 457 431 P_____________ AL021904 27.3774 -74.2351 HU 70 1 9 297
1904252N16306 1904 33 NA NA NOT_NAMED 1904-09-13 00:00:00 TS 27.6000 -74.7000 70 hurdat_atl main 431 409 O_____________ hurdat_atl AL021904 27.6000 -74.7000 HU 70 1 10 297
1904252N16306 1904 33 NA NA NOT_NAMED 1904-09-13 03:00:00 TS 27.8124 -75.1930 main 410 402 P_____________ AL021904 27.8124 -75.1930 HU 70 1 10 299
1904252N16306 1904 33 NA NA NOT_NAMED 1904-09-13 06:00:00 TS 28.1000 -75.7000 70 hurdat_atl main 405 400 O_____________ hurdat_atl AL021904 28.1000 -75.7000 HU 70 1 12 309
1904252N16306 1904 33 NA NA NOT_NAMED 1904-09-13 09:00:00 TS 28.5350 -76.2220 main 418 374 P_____________ AL021904 28.5350 -76.2220 HU 70 1 13 316
1904252N16306 1904 33 NA NA NOT_NAMED 1904-09-13 12:00:00 TS 29.0000 -76.7000 70 hurdat_atl main 374 342 O_____________ hurdat_atl AL021904 29.0000 -76.7000 HU 70 1 11 318
1904252N16306 1904 33 NA NA NOT_NAMED 1904-09-13 15:00:00 TS 29.3647 -77.0806 main 345 329 P_____________ AL021904 29.3647 -77.0806 HU 70 1 9 319
1904252N16306 1904 33 NA NA NOT_NAMED 1904-09-13 18:00:00 TS 29.7000 -77.4000 70 hurdat_atl main 329 318 O_____________ hurdat_atl AL021904 29.7000 -77.4000 HU 70 1 9 320
1904252N16306 1904 33 NA NA NOT_NAMED 1904-09-13 21:00:00 TS 30.0199 -77.7155 main 318 309 P_____________ AL021904 30.0199 -77.7155 HU 70 1 9 323
1904252N16306 1904 33 NA NA NOT_NAMED 1904-09-14 00:00:00 TS 30.4000 -78.0000 70 hurdat_atl main 309 254 O_____________ hurdat_atl AL021904 30.4000 -78.0000 HU 70 1 10 332
1904252N16306 1904 33 NA NA NOT_NAMED 1904-09-14 03:00:00 TS 30.9124 -78.2577 main 248 186 P_____________ AL021904 30.9124 -78.2577 HU 70 1 12 339
1904252N16306 1904 33 NA NA NOT_NAMED 1904-09-14 06:00:00 TS 31.5000 -78.5000 70 hurdat_atl main 186 143 O_____________ hurdat_atl AL021904 31.5000 -78.5000 HU 70 1 11 341
1904252N16306 1904 33 NA NA NOT_NAMED 1904-09-14 09:00:00 TS 31.9317 -78.6574 main 139 58 P_____________ AL021904 31.9317 -78.6574 HU 70 1 13 341
1904252N16306 1904 33 NA NA NOT_NAMED 1904-09-14 12:00:00 TS 32.7000 -79.0000 70 hurdat_atl main 50 18 O_____________ hurdat_atl AL021904 32.7000 -79.0000 HU 70 1 19 339
1904252N16306 1904 33 NA NA NOT_NAMED 1904-09-14 13:00:00 TS 33.1000 -79.2000 70 hurdat_atl main 11 0 O_____________ hurdat_atl AL021904 33.1000 -79.2000 L HU 70 1 23 339
1904252N16306 1904 33 NA NA NOT_NAMED 1904-09-14 15:00:00 TS 33.7664 -79.5011 main 0 0 P_____________ AL021904 33.7664 -79.5011 HU 65 1 18 351
1904252N16306 1904 33 NA NA NOT_NAMED 1904-09-14 18:00:00 TS 34.6000 -79.5000 60 hurdat_atl main 0 0 O_____________ hurdat_atl AL021904 34.6000 -79.5000 TS 60 0 18 19
1904252N16306 1904 33 NA NA NOT_NAMED 1904-09-14 21:00:00 TS 35.4910 -78.7862 main 0 0 P_____________ AL021904 35.4910 -78.7862 TS 57 0 25 39
1904252N16306 1904 33 NA NA NOT_NAMED 1904-09-15 00:00:00 TS 36.5000 -77.6000 55 hurdat_atl main 0 0 O_____________ hurdat_atl AL021904 36.5000 -77.6000 TS 55 0 29 40
1904252N16306 1904 33 NA NA NOT_NAMED 1904-09-15 03:00:00 TS 37.7191 -76.4987 main 0 0 P_____________ AL021904 37.7191 -76.4987 TS 60 0 33 38
1904252N16306 1904 33 NA NA NOT_NAMED 1904-09-15 06:00:00 ET 39.1000 -75.0000 65 hurdat_atl main 8 0 O_____________ hurdat_atl AL021904 39.1000 -75.0000 EX 65 -4 39 46
1904252N16306 1904 33 NA NA NOT_NAMED 1904-09-15 09:00:00 ET 40.4494 -72.9078 main 37 0 P_____________ AL021904 40.4494 -72.9078 EX 70 -4 46 51
1904252N16306 1904 33 NA NA NOT_NAMED 1904-09-15 12:00:00 ET 42.0000 -70.3000 75 hurdat_atl main 19 19 O_____________ hurdat_atl AL021904 42.0000 -70.3000 EX 75 -4 54 50
1904252N16306 1904 33 NA NA NOT_NAMED 1904-09-15 15:00:00 ET 43.8762 -67.3134 main 70 0 P_____________ AL021904 43.8762 -67.3134 EX 65 -4 60 49
1904252N16306 1904 33 NA NA NOT_NAMED 1904-09-15 18:00:00 ET 45.9000 -64.0000 55 hurdat_atl main 0 O_____________ hurdat_atl AL021904 45.9000 -64.0000 EX 55 -4 62 49

IBTrACS Databaseについて

本データベースは、米国NOAAが公開する1842年以降の世界の熱帯低気圧のベストトラックデータアーカイブInternational Best Track Archive for Climate Stewardship (IBTrACS)を、ウェブで閲覧しやすい形式に変換したものです。

最終更新日:2021-12-06